หน้าหลัก
METAR-TAF:

METAR-TAF

ท่าอากาศยาน :

Førde, นอร์เวย์

ละติจูด: 61-27N, ลองจิจูด: 005-52E, ความสูง: 150 ม.

การสังเกตสภาพอากาศปัจจุบัน

รายงานได้ทำขึ้นเมื่อ 26 นาทีที่แล้ว ณ เวลา 00:20 UTC
ลม 2 นอตจากทิศทางซึ่งแปรผันได้
อุณหภูมิ 17°C
ความชื้น 72%
ความกดอากาศ 1016 hPa
ทัศนวิสัย 10 กม. หรือมากกว่า

METAR: ENBL 200020Z AUTO VRB02KT 9999 OVC051/// 17/12 Q1016

เวลา: 02:46 (00:46 UTC)

การพยากรณ์

รายงานได้ทำขึ้นเมื่อ 7 ชั่วโมงและ 46 นาทีที่แล้ว ณ เวลา 17:00 UTC
การพยากรณ์มีผลตั้งแต่วันที่ 19 ณ เวลา 18 UTC จนถึงวันที่ 19 ณ เวลา 22 UTC
ลม 5 นอตจากใต้/ตะวันตกเฉียงใต้
ทัศนวิสัย 10 กม. หรือมากกว่า
มีเมฆน้อยที่ความสูง 2000 ฟุต
มีเมฆเป็นส่วนมากเว้นเป็นระยะที่ความสูง 4000 ฟุต

TAF: ENBL 191700Z 1918/1922 21005KT 9999 FEW020 BKN040

สังเกตการณ์สภาพอากาศและพยากรณ์อากาศของสนามบินมากกว่า 4000 แห่ง (รายงาน METAR และ TAF).

สถานีที่ดูได้จะแสดงไว้ด้วยจุดสีเหลืองและสีแดงบนแผนที่.

เลื่อนเมาส์ไปเหนือจุดเพื่อดูชื่อสถานี.

แล้วคลิกเพื่อดูสังเกตการณ์และการพยากรณ์สภาพอากาศ.

ในการเปลี่ยนแผนที่: คลิกที่ปุ่มสีเขียวที่มีกากบาทสีดำเพื่อซูมเข้า; ที่ปุ่มสีเขียวที่มีขีดเพื่อซูมออก; หรือที่ลูกศรสีเขียวเพื่อไปยังแผนที่ที่อยู่ติดกัน.


METAR-TAF: